Fairland, Indiana
Current Conditions -  °F | °C
As of 11:53 AM on Monday 24 Nov 2014 (Local Time) from KGEZ Reporting Station
Overcast Overcast  
Wind Chill: 32°   Ceiling: 1900
Heat Index: 42°   Visibility: 10mi
Dew Point: 35°   Wind: 24mph
Humidity: 76%   Direction: 250°WSW
Pressure: 29.53"   Gusts: 35mph
Location:  39.59°N, 85.86°W
Report Text: KGEZ 241653Z AUTO 25021G30KT 10SM OVC019 06/02 A2953 RMK AO2 PK WND 25039/1628 SLP001 T00560017
Loading
Personal Weather Stations






























Interactive Weather Map New forecast layout! Learn more

10-Day Weather Forecast

Advertisements
Track Severe Weather on mobile